Archival Weather

Yakutsk

Yakutsk, Russia (UEEE)

Report from: Monday, February 6, 2023 4:30 PM JST
Current time: Wednesday, July 17, 2024 12:55 AM JST

Current weather – Weather history – Daily summaries
Weather forecast

Present weatherMist
Temperature-39.0°C (-38.2°F)
Wind chill-47.9°C (-54.2°F)
Dew point-43.0°C (-45.4°F)
Winds 3.9 kts (2 m/s, 4.5 mph) South (180°)
Visibility3.1 mi. (5 km)
Altimeter30.27 in.Hg (1025 mB)
Precip. events QF 6:40 PM
Relative humidity65 %
Density altitude-7,659 ft. (-2,334 m)
Remarks No significant changes expected in the next two hours
Flight conditions Marginal Visual Meteorological Conditions
Raw dataUEEE 060730Z 18002MPS 5000 BR NSC M39/M43 Q1025 R23L/490150 NOSIG RMK QFE760
An error has occurred. This application may no longer respond until reloaded. Reload 🗙